Time;durP1;ratioP1;P1;durP2;ratioP2;P2;SDS_P1;SDS_P2;PMS_P1;PMS_P2;Temp;Humidity;BMP_temperature;BMP_pressure;BME280_temperature;BME280_humidity;BME280_pressure;Samples;Min_cycle;Max_cycle;Signal;HPM_P1;HPM_P2
2022/09/24 00:00:52;;;;;;;20.17;15.13;;;;;;;23.16;54.01;101302.72;5026204;28;20025;-77
2022/09/24 00:03:23;;;;;;;21.60;14.68;;;;;;;22.17;55.28;101301.69;5029847;28;20116;-76
2022/09/24 00:05:50;;;;;;;19.35;14.90;;;;;;;22.32;56.08;101308.03;5024970;28;20285;-77
2022/09/24 00:08:17;;;;;;;20.63;14.95;;;;;;;22.29;55.42;101313.53;5031850;28;20036;-76
2022/09/24 00:10:44;;;;;;;26.13;17.45;;;;;;;23.09;54.19;101313.75;5032871;28;20033;-77
2022/09/24 00:13:15;;;;;;;24.58;16.60;;;;;;;22.96;53.21;101303.75;5028655;28;20033;-77
2022/09/24 00:15:46;;;;;;;22.40;16.33;;;;;;;23.34;52.81;101299.94;5025303;28;20045;-77
2022/09/24 00:18:13;;;;;;;24.95;16.52;;;;;;;23.01;54.75;101306.16;5027941;28;20532;-77
2022/09/24 00:20:39;;;;;;;21.58;15.45;;;;;;;21.69;59.13;101293.44;5029690;28;20037;-78
2022/09/24 00:23:07;;;;;;;23.15;16.83;;;;;;;21.86;57.85;101296.13;5031703;28;20020;-77
2022/09/24 00:28:17;;;;;;;26.58;17.23;;;;;;;22.70;55.63;101289.19;5024179;28;20060;-77
2022/09/24 00:30:43;;;;;;;21.42;16.67;;;;;;;21.57;61.50;101291.38;5024736;28;20026;-77
2022/09/24 00:33:10;;;;;;;24.50;16.80;;;;;;;21.45;60.18;101283.03;5022797;28;20375;-78
2022/09/24 00:35:37;;;;;;;22.25;16.48;;;;;;;22.34;57.22;101284.91;5019848;28;20029;-78
2022/09/24 00:38:05;;;;;;;26.67;18.55;;;;;;;21.97;56.23;101284.09;5024870;28;20362;-78
2022/09/24 00:40:36;;;;;;;23.55;16.40;;;;;;;21.99;59.40;101282.19;5035860;28;20033;-78
2022/09/24 00:43:01;;;;;;;24.13;16.98;;;;;;;22.90;54.69;101290.75;5022000;28;20036;-78
2022/09/24 00:45:29;;;;;;;22.33;17.50;;;;;;;23.00;52.49;101283.16;5026188;28;20049;-77
2022/09/24 00:47:57;;;;;;;26.92;18.45;;;;;;;23.15;52.64;101282.31;5027477;28;20493;-77
2022/09/24 00:50:28;;;;;;;25.10;18.02;;;;;;;22.73;54.35;101285.50;5015007;28;20160;-77
2022/09/24 00:53:05;;;;;;;27.63;19.13;;;;;;;21.82;57.84;101277.75;5031611;28;20151;-77
2022/09/24 00:55:33;;;;;;;24.30;17.00;;;;;;;22.83;54.12;101274.28;5018410;28;20030;-77
2022/09/24 00:58:03;;;;;;;24.15;17.58;;;;;;;23.29;53.00;101278.03;5017886;28;20025;-77
2022/09/24 01:00:29;;;;;;;22.02;16.58;;;;;;;22.85;53.69;101280.38;5015955;28;20029;-78
2022/09/24 01:03:05;;;;;;;23.45;17.27;;;;;;;23.44;50.70;101282.47;5032012;28;20024;-77
2022/09/24 01:05:31;;;;;;;22.80;15.75;;;;;;;23.13;53.81;101268.19;5029634;28;20029;-76
2022/09/24 01:07:57;;;;;;;22.33;16.48;;;;;;;22.48;55.12;101270.84;5029676;28;20017;-76
2022/09/24 01:10:49;;;;;;;23.67;16.63;;;;;;;22.52;55.18;101267.94;5022506;28;20115;-76
2022/09/24 01:13:43;;;;;;;23.52;17.60;;;;;;;22.13;56.28;101263.75;5023765;28;20038;-75
2022/09/24 01:16:14;;;;;;;25.08;18.17;;;;;;;22.12;56.61;101264.69;5027100;28;20113;-75
2022/09/24 01:18:45;;;;;;;25.83;18.13;;;;;;;23.05;53.67;101262.41;5023025;28;20481;-75
2022/09/24 01:21:28;;;;;;;31.67;21.10;;;;;;;23.26;51.89;101262.16;5026208;28;20494;-75
2022/09/24 01:24:18;;;;;;;34.53;23.30;;;;;;;23.54;52.18;101267.63;5017302;28;20112;-76
2022/09/24 01:27:00;;;;;;;35.55;22.48;;;;;;;22.88;54.72;101256.19;5028239;28;20033;-75
2022/09/24 01:29:33;;;;;;;38.88;24.38;;;;;;;22.81;54.21;101257.50;5015891;28;20026;-75
2022/09/24 01:32:12;;;;;;;33.70;22.50;;;;;;;23.12;53.39;101255.84;5022957;28;20033;-75
2022/09/24 01:34:51;;;;;;;40.00;24.38;;;;;;;22.31;56.04;101253.03;5014857;28;20037;-76
2022/09/24 01:37:21;;;;;;;33.72;22.08;;;;;;;22.49;55.17;101249.44;5025226;28;20481;-76
2022/09/24 01:39:49;;;;;;;36.28;23.00;;;;;;;21.93;57.02;101247.94;5015098;28;20057;-76
2022/09/24 01:42:17;;;;;;;34.25;22.27;;;;;;;22.73;54.92;101238.41;5030950;28;20021;-77
2022/09/24 01:44:43;;;;;;;31.67;21.45;;;;;;;23.00;52.66;101246.69;5029401;28;20041;-76
2022/09/24 01:47:12;;;;;;;33.65;22.63;;;;;;;23.17;52.26;101239.56;5028965;28;20037;-77
2022/09/24 01:49:37;;;;;;;31.25;22.05;;;;;;;23.03;51.74;101240.31;5023456;28;20566;-77
2022/09/24 01:52:07;;;;;;;32.80;21.95;;;;;;;23.16;50.94;101241.38;5028549;28;20127;-77
2022/09/24 01:54:50;;;;;;;28.52;20.38;;;;;;;22.77;53.26;101223.97;5029052;28;20494;-77
2022/09/24 01:57:26;;;;;;;31.92;21.33;;;;;;;22.05;57.50;101222.47;5023487;28;20033;-77
2022/09/24 01:59:56;;;;;;;28.30;20.05;;;;;;;22.31;54.93;101218.44;5030115;28;20548;-77
2022/09/24 02:02:27;;;;;;;26.77;19.60;;;;;;;22.22;54.08;101221.59;5026974;28;20036;-76
2022/09/24 02:04:59;;;;;;;29.55;20.45;;;;;;;22.66;53.95;101223.69;5031590;28;20100;-76
2022/09/24 02:07:38;;;;;;;29.15;19.02;;;;;;;22.44;55.30;101222.19;5032958;28;20029;-77
2022/09/24 02:10:03;;;;;;;31.17;20.20;;;;;;;22.47;53.99;101215.84;5034471;28;20041;-76
2022/09/24 02:12:40;;;;;;;31.52;18.98;;;;;;;22.31;54.47;101211.31;5025319;28;20029;-77
2022/09/24 02:15:34;;;;;;;30.73;20.20;;;;;;;23.44;51.52;101201.56;5015368;28;20092;-76
2022/09/24 02:18:05;;;;;;;30.08;20.08;;;;;;;23.12;50.97;101206.94;5015107;28;20467;-78
2022/09/24 02:20:33;;;;;;;31.70;21.27;;;;;;;22.90;51.76;101199.31;5031982;28;20037;-76
2022/09/24 02:22:59;;;;;;;30.98;22.02;;;;;;;23.10;51.55;101204.34;5024103;28;20029;-77
2022/09/24 02:25:38;;;;;;;31.55;20.98;;;;;;;23.18;50.91;101202.16;5022069;28;20044;-77
2022/09/24 02:28:03;;;;;;;28.75;20.77;;;;;;;23.44;50.09;101196.25;5016704;28;20075;-77
2022/09/24 02:30:37;;;;;;;29.50;20.90;;;;;;;24.37;48.07;101196.91;5019022;28;20389;-77
2022/09/24 02:34:19;;;;;;;28.42;19.90;;;;;;;23.58;50.02;101198.13;5029759;28;20381;-77
2022/09/24 02:35:52;;;;;;;29.70;20.63;;;;;;;24.06;48.23;101196.16;5035418;28;20116;-77
2022/09/24 02:38:18;;;;;;;30.27;20.23;;;;;;;23.82;48.55;101193.13;5033387;28;20116;-77
2022/09/24 02:40:43;;;;;;;27.65;20.00;;;;;;;23.97;47.42;101200.22;5042777;28;20072;-76
2022/09/24 02:43:09;;;;;;;29.05;21.35;;;;;;;24.14;47.72;101196.53;5021669;28;20029;-76
2022/09/24 02:45:34;;;;;;;27.50;19.52;;;;;;;24.51;46.57;101204.94;5033183;28;20053;-76
2022/09/24 02:47:59;;;;;;;27.40;19.25;;;;;;;24.85;46.13;101194.78;5032040;28;20079;-77
2022/09/24 02:50:25;;;;;;;29.20;21.10;;;;;;;24.68;47.06;101195.00;5033767;28;20033;-77
2022/09/24 02:52:50;;;;;;;27.65;19.48;;;;;;;23.75;47.78;101197.94;5027654;28;20029;-77
2022/09/24 02:55:16;;;;;;;28.90;19.98;;;;;;;23.95;47.53;101190.63;5017931;28;20036;-77
2022/09/24 02:57:41;;;;;;;27.42;20.25;;;;;;;23.32;49.40;101188.00;5023799;28;20481;-77
2022/09/24 03:00:07;;;;;;;30.08;22.05;;;;;;;24.10;47.92;101183.44;5034165;28;20029;-77
2022/09/24 03:02:33;;;;;;;29.08;21.13;;;;;;;23.88;48.37;101174.09;5027744;28;20493;-77
2022/09/24 03:04:58;;;;;;;30.30;22.00;;;;;;;24.56;47.20;101186.78;5030822;28;20030;-77
2022/09/24 03:07:23;;;;;;;26.63;20.00;;;;;;;24.34;46.59;101187.25;5033231;28;20025;-77
2022/09/24 03:09:49;;;;;;;28.25;20.00;;;;;;;24.70;46.34;101193.09;5044128;28;20401;-76
2022/09/24 03:12:14;;;;;;;32.35;21.75;;;;;;;24.27;46.98;101185.09;5019497;28;20029;-77
2022/09/24 03:14:39;;;;;;;28.75;21.50;;;;;;;23.63;48.74;101188.91;5026510;28;20100;-77
2022/09/24 03:17:05;;;;;;;33.00;21.48;;;;;;;23.14;49.54;101197.94;5053229;28;20044;-77
2022/09/24 03:19:30;;;;;;;27.85;20.98;;;;;;;24.14;47.35;101185.84;5029198;28;20370;-77
2022/09/24 03:21:55;;;;;;;31.90;22.98;;;;;;;24.20;46.75;101190.78;5025062;28;20037;-77
2022/09/24 03:24:21;;;;;;;29.48;21.83;;;;;;;24.58;46.44;101188.50;5023478;28;20033;-77
2022/09/24 03:26:46;;;;;;;33.30;22.88;;;;;;;24.40;46.81;101188.72;5033202;28;20025;-77
2022/09/24 03:29:11;;;;;;;29.90;21.52;;;;;;;24.52;46.46;101187.94;5019812;28;20136;-77
2022/09/24 03:31:37;;;;;;;31.55;22.02;;;;;;;24.67;46.10;101179.94;5019066;28;20037;-77
2022/09/24 03:34:02;;;;;;;34.60;23.23;;;;;;;24.59;46.29;101177.69;5015617;28;20137;-77
2022/09/24 03:36:28;;;;;;;30.23;22.55;;;;;;;25.08;45.44;101179.06;5020144;28;20060;-78
2022/09/24 03:38:55;;;;;;;30.13;23.15;;;;;;;24.92;45.36;101181.00;5030494;28;20040;-77
2022/09/24 03:41:21;;;;;;;32.58;22.90;;;;;;;24.95;44.79;101171.00;5024529;28;20028;-77
2022/09/24 03:43:47;;;;;;;29.92;22.17;;;;;;;24.74;45.64;101170.53;5021063;28;20057;-77
2022/09/24 03:46:12;;;;;;;29.45;20.85;;;;;;;24.42;45.93;101178.78;5013108;28;20037;-77
2022/09/24 03:48:39;;;;;;;30.10;21.83;;;;;;;24.85;45.58;101175.19;5023812;28;20036;-77
2022/09/24 03:51:07;;;;;;;32.63;22.70;;;;;;;24.99;44.90;101166.28;5028435;28;20537;-77
2022/09/24 03:53:33;;;;;;;29.00;22.25;;;;;;;25.12;45.54;101180.56;5024819;28;20321;-77
2022/09/24 03:56:01;;;;;;;30.85;22.13;;;;;;;24.84;45.02;101174.34;5029844;28;20021;-77
2022/09/24 03:58:28;;;;;;;32.55;22.88;;;;;;;24.71;45.96;101174.28;5012690;28;20021;-77
2022/09/24 04:00:54;;;;;;;30.33;21.88;;;;;;;25.22;45.04;101183.47;5013889;28;20034;-77
2022/09/24 04:03:21;;;;;;;29.38;21.60;;;;;;;24.99;45.01;101176.97;5026865;28;20026;-77
2022/09/24 04:05:47;;;;;;;34.85;23.60;;;;;;;25.23;44.89;101175.34;5023818;28;20508;-77
2022/09/24 04:08:12;;;;;;;31.63;23.40;;;;;;;25.15;44.59;101182.19;5033675;28;20022;-77
2022/09/24 04:10:38;;;;;;;31.83;23.25;;;;;;;24.69;46.06;101176.19;5020769;28;20037;-77
2022/09/24 04:13:03;;;;;;;32.05;23.13;;;;;;;25.22;45.68;101184.34;5034114;28;20543;-77
2022/09/24 04:15:29;;;;;;;31.38;22.58;;;;;;;25.04;45.40;101180.22;5025369;28;20112;-77
2022/09/24 04:17:56;;;;;;;32.28;22.88;;;;;;;25.16;44.71;101175.88;5027273;28;20108;-77
2022/09/24 04:20:24;;;;;;;29.98;22.63;;;;;;;24.89;45.39;101166.91;5030933;28;20029;-77
2022/09/24 04:22:51;;;;;;;28.48;21.52;;;;;;;25.03;45.08;101167.78;5033553;28;20472;-77
2022/09/24 04:25:17;;;;;;;30.00;22.45;;;;;;;25.12;45.20;101166.34;5023510;28;20478;-77
2022/09/24 04:27:46;;;;;;;33.25;23.38;;;;;;;23.98;47.27;101164.56;5015079;28;20022;-77
2022/09/24 04:30:13;;;;;;;33.03;23.73;;;;;;;23.97;47.89;101162.00;5019321;28;20025;-77
2022/09/24 04:32:42;;;;;;;34.38;23.52;;;;;;;24.84;45.71;101152.97;5034109;28;20033;-77
2022/09/24 04:35:08;;;;;;;31.48;23.35;;;;;;;25.07;45.33;101155.94;5021957;28;20502;-77
2022/09/24 04:37:33;;;;;;;30.50;23.48;;;;;;;25.35;44.67;101151.47;5031944;28;20031;-77
2022/09/24 04:39:58;;;;;;;33.47;24.73;;;;;;;25.04;45.30;101159.66;5031383;28;20029;-77
2022/09/24 04:42:24;;;;;;;34.75;25.02;;;;;;;24.93;45.86;101156.00;5032988;28;20021;-77
2022/09/24 04:44:49;;;;;;;34.45;24.83;;;;;;;24.97;45.72;101163.72;5020579;28;20054;-77
2022/09/24 04:47:15;;;;;;;34.15;25.08;;;;;;;25.09;45.77;101171.88;5029096;28;20033;-76
2022/09/24 04:49:44;;;;;;;37.08;26.23;;;;;;;25.29;45.49;101166.06;5019718;28;20116;-76
2022/09/24 04:52:13;;;;;;;40.70;25.88;;;;;;;25.41;46.68;101161.75;5026829;28;20026;-76
2022/09/24 04:54:40;;;;;;;37.63;27.05;;;;;;;24.67;48.55;101163.88;5031678;28;20433;-75
2022/09/24 04:57:06;;;;;;;38.47;27.38;;;;;;;25.31;46.51;101165.97;5022178;28;20018;-75
2022/09/24 04:59:32;;;;;;;37.80;27.55;;;;;;;24.92;48.77;101173.84;5043715;28;20030;-75
2022/09/24 05:01:58;;;;;;;43.05;28.25;;;;;;;24.94;47.50;101171.09;5044924;28;20026;-75
2022/09/24 05:04:23;;;;;;;40.63;28.75;;;;;;;24.82;48.89;101170.91;5011716;28;20036;-73
2022/09/24 05:06:48;;;;;;;42.67;27.55;;;;;;;25.10;47.90;101174.47;5018398;28;20025;-74
2022/09/24 05:09:14;;;;;;;42.00;28.48;;;;;;;25.03;48.23;101176.69;5025214;28;20474;-74
2022/09/24 05:11:39;;;;;;;56.00;30.58;;;;;;;24.89;48.26;101176.72;5029786;28;20549;-74
2022/09/24 05:14:04;;;;;;;51.53;31.08;;;;;;;24.54;50.03;101175.34;5032301;28;20512;-74
2022/09/24 05:16:30;;;;;;;45.97;30.67;;;;;;;25.38;47.29;101178.00;5031216;28;20022;-74
2022/09/24 05:18:56;;;;;;;48.17;30.70;;;;;;;24.92;49.01;101175.66;5024804;28;20020;-74
2022/09/24 05:21:22;;;;;;;44.25;30.15;;;;;;;24.68;47.99;101176.31;5036174;28;20029;-74
2022/09/24 05:23:47;;;;;;;46.13;30.08;;;;;;;24.35;50.44;101183.66;5013979;28;20034;-74
2022/09/24 05:28:57;;;;;;;40.80;27.80;;;;;;;24.30;49.73;101179.56;5026666;28;20088;-74
2022/09/24 05:31:22;;;;;;;38.58;26.77;;;;;;;24.54;50.07;101183.34;5034228;28;20033;-74
2022/09/24 05:33:48;;;;;;;41.85;28.42;;;;;;;24.77;47.58;101183.75;5030299;28;20025;-74
2022/09/24 05:36:13;;;;;;;40.80;28.23;;;;;;;24.59;50.30;101183.03;5024162;28;20034;-75
2022/09/24 05:38:39;;;;;;;40.83;27.95;;;;;;;24.15;49.60;101181.34;5047054;28;20033;-74
2022/09/24 05:41:04;;;;;;;37.80;26.80;;;;;;;24.61;48.14;101177.63;5020941;28;20033;-75
2022/09/24 05:43:30;;;;;;;39.28;26.77;;;;;;;24.68;49.84;101181.66;5031986;28;20067;-75
2022/09/24 05:45:57;;;;;;;41.78;27.27;;;;;;;24.67;49.82;101177.25;5029671;28;20021;-75
2022/09/24 05:48:24;;;;;;;41.58;26.83;;;;;;;24.84;49.13;101177.03;5031104;28;20088;-75
2022/09/24 05:50:50;;;;;;;40.80;26.08;;;;;;;25.10;48.38;101178.94;5029132;28;20157;-75
2022/09/24 05:53:16;;;;;;;38.05;25.27;;;;;;;24.79;48.69;101184.47;5012095;28;20026;-76
2022/09/24 05:55:42;;;;;;;37.33;24.98;;;;;;;24.76;48.38;101182.00;5028066;28;20025;-76
2022/09/24 05:58:09;;;;;;;37.40;24.77;;;;;;;24.97;48.50;101185.09;5029301;28;20393;-75
2022/09/24 06:00:35;;;;;;;35.60;24.05;;;;;;;24.47;48.08;101191.84;5031528;28;20044;-76
2022/09/24 06:03:19;;;;;;;37.13;23.23;;;;;;;24.73;48.29;101185.75;5027657;28;20413;-76
2022/09/24 06:05:49;;;;;;;33.03;22.75;;;;;;;24.74;48.26;101191.94;5025241;28;20029;-76
2022/09/24 06:08:15;;;;;;;33.28;21.90;;;;;;;24.42;48.13;101186.78;5026137;28;20021;-76
2022/09/24 06:10:44;;;;;;;29.85;20.33;;;;;;;24.76;48.01;101184.69;5020567;28;20038;-74
2022/09/24 06:13:10;;;;;;;34.42;21.75;;;;;;;24.44;47.87;101203.59;5028503;28;20040;-74
2022/09/24 06:15:37;;;;;;;35.45;21.92;;;;;;;24.59;47.88;101203.56;5022976;28;20031;-75
2022/09/24 06:18:03;;;;;;;35.20;22.30;;;;;;;24.45;48.12;101207.97;5014180;28;20037;-75
2022/09/24 06:20:28;;;;;;;37.30;23.80;;;;;;;24.32;47.86;101209.72;5010955;28;20421;-75
2022/09/24 06:22:56;;;;;;;38.90;23.33;;;;;;;24.60;47.76;101210.63;5011675;28;20030;-75
2022/09/24 06:25:22;;;;;;;38.15;23.17;;;;;;;24.09;48.85;101206.63;5011068;28;20030;-75
2022/09/24 06:27:55;;;;;;;39.25;23.95;;;;;;;24.50;47.50;101213.88;5026391;28;20032;-75
2022/09/24 06:30:20;;;;;;;36.60;22.55;;;;;;;24.26;48.43;101210.91;5029674;28;20036;-75
2022/09/24 06:32:46;;;;;;;38.60;23.40;;;;;;;24.28;48.50;101213.53;5029786;28;20112;-75
2022/09/24 06:35:11;;;;;;;40.05;22.90;;;;;;;24.56;47.46;101213.50;5029596;28;20126;-75
2022/09/24 06:37:36;;;;;;;35.28;21.08;;;;;;;24.48;47.82;101207.78;5031573;28;20086;-74
2022/09/24 06:40:02;;;;;;;31.23;19.73;;;;;;;24.42;48.32;101213.50;5028434;28;20140;-74
2022/09/24 06:42:28;;;;;;;31.83;20.35;;;;;;;23.29;50.64;101219.34;5043631;28;20063;-75
2022/09/24 06:44:53;;;;;;;30.80;19.83;;;;;;;23.58;50.45;101214.13;5049744;28;20083;-75
2022/09/24 06:47:18;;;;;;;31.80;18.77;;;;;;;23.18;51.74;101218.16;5047088;28;20127;-75
2022/09/24 06:49:44;;;;;;;27.05;17.92;;;;;;;22.55;53.09;101223.44;5011851;28;20065;-75
2022/09/24 06:52:10;;;;;;;26.42;16.85;;;;;;;23.07;53.91;101225.88;5028897;28;20035;-75
2022/09/24 06:54:35;;;;;;;24.40;13.75;;;;;;;22.78;53.72;101232.81;5031311;28;20444;-75
2022/09/24 06:57:01;;;;;;;24.55;12.90;;;;;;;22.34;54.61;101226.31;5030867;28;20033;-75
2022/09/24 06:59:27;;;;;;;19.35;11.55;;;;;;;22.99;53.47;101228.09;5032923;28;20086;-75
2022/09/24 07:01:52;;;;;;;11.00;6.97;;;;;;;22.16;58.56;101226.31;5028851;28;20034;-75
2022/09/24 07:04:18;;;;;;;14.82;5.78;;;;;;;22.17;56.96;101230.69;5027171;28;20155;-75
2022/09/24 07:09:27;;;;;;;8.73;3.05;;;;;;;21.98;59.52;101235.22;5016725;28;20107;-75
2022/09/24 07:11:53;;;;;;;8.25;3.00;;;;;;;21.42;64.98;101243.31;5016094;28;20029;-75
2022/09/24 07:14:18;;;;;;;12.15;2.90;;;;;;;20.75;70.38;101240.28;5031442;28;20116;-75
2022/09/24 07:16:46;;;;;;;12.25;3.17;;;;;;;21.25;68.08;101251.25;5032472;28;20116;-74
2022/09/24 07:19:11;;;;;;;11.05;2.53;;;;;;;21.81;60.81;101252.91;5019966;28;20061;-75
2022/09/24 07:21:38;;;;;;;16.13;4.43;;;;;;;21.33;62.45;101259.72;5014067;28;20423;-74
2022/09/24 07:24:03;;;;;;;19.85;3.17;;;;;;;20.97;68.40;101257.88;5023870;28;20374;-73
2022/09/24 07:26:29;;;;;;;10.27;2.78;;;;;;;21.52;64.98;101257.03;5032199;28;20036;-75
2022/09/24 07:28:54;;;;;;;12.88;2.40;;;;;;;22.04;60.22;101256.22;5032147;28;20029;-74
2022/09/24 07:31:19;;;;;;;15.73;2.35;;;;;;;20.22;72.06;101264.78;5026936;28;20048;-74
2022/09/24 07:33:45;;;;;;;10.82;2.38;;;;;;;20.93;67.66;101264.28;5034266;28;20029;-76
2022/09/24 07:36:10;;;;;;;13.60;2.95;;;;;;;21.33;65.09;101265.03;5031644;28;20037;-75
2022/09/24 07:38:36;;;;;;;15.52;3.05;;;;;;;20.86;67.15;101271.66;5032121;28;20025;-73
2022/09/24 07:41:06;;;;;;;14.05;2.80;;;;;;;21.93;62.45;101269.22;5027295;28;20056;-75
2022/09/24 07:43:32;;;;;;;20.33;3.40;;;;;;;21.18;64.62;101274.59;5023809;28;20056;-73
2022/09/24 07:45:59;;;;;;;14.50;2.35;;;;;;;21.57;63.42;101278.09;5032504;28;20053;-73
2022/09/24 07:48:24;;;;;;;17.27;2.75;;;;;;;22.01;59.60;101273.22;5031843;28;20476;-73
2022/09/24 07:50:50;;;;;;;19.38;3.60;;;;;;;21.14;65.59;101291.63;5024380;28;20482;-74
2022/09/24 07:53:15;;;;;;;8.38;2.45;;;;;;;21.11;65.56;101282.00;5065480;28;20424;-73
2022/09/24 07:55:41;;;;;;;14.93;2.83;;;;;;;21.38;63.88;101289.59;5031462;28;20079;-75
2022/09/24 07:58:10;;;;;;;12.90;2.90;;;;;;;22.00;62.18;101291.91;5032017;28;20068;-75
2022/09/24 08:00:36;;;;;;;16.98;2.70;;;;;;;21.51;62.60;101296.06;5027915;28;20028;-74
2022/09/24 08:03:02;;;;;;;12.05;2.97;;;;;;;20.76;68.61;101292.47;5019822;28;20401;-74
2022/09/24 08:05:28;;;;;;;22.98;3.05;;;;;;;20.64;67.05;101290.34;5013543;28;20022;-74
2022/09/24 08:07:56;;;;;;;15.93;3.03;;;;;;;21.88;60.99;101292.53;5012997;28;20507;-75
2022/09/24 08:10:22;;;;;;;13.55;2.50;;;;;;;21.74;62.03;101302.06;5028165;28;20061;-74
2022/09/24 08:12:48;;;;;;;18.15;2.78;;;;;;;22.51;59.66;101292.81;5023433;28;20026;-75
2022/09/24 08:15:14;;;;;;;21.73;3.10;;;;;;;21.80;59.84;101301.78;5012251;28;20031;-75
2022/09/24 08:17:40;;;;;;;12.32;3.67;;;;;;;22.39;57.78;101304.13;5029148;28;20037;-75
2022/09/24 08:20:06;;;;;;;19.10;3.70;;;;;;;23.54;53.32;101299.66;5027269;28;20079;-75
2022/09/24 08:22:32;;;;;;;18.70;3.60;;;;;;;23.29;53.92;101312.69;5027391;28;20485;-76
2022/09/24 08:24:58;;;;;;;13.35;2.63;;;;;;;23.83;51.80;101315.78;5031338;28;20505;-76
2022/09/24 08:27:24;;;;;;;16.77;2.85;;;;;;;23.91;51.71;101317.19;5024048;28;20026;-76
2022/09/24 08:29:50;;;;;;;9.98;3.28;;;;;;;23.19;54.23;101315.84;5011988;28;20069;-76
2022/09/24 08:32:16;;;;;;;18.25;2.67;;;;;;;22.61;55.77;101314.50;5044614;28;20025;-76
2022/09/24 08:34:44;;;;;;;14.07;2.58;;;;;;;21.91;59.68;101319.84;5029581;28;20025;-76
2022/09/24 08:37:09;;;;;;;9.30;2.20;;;;;;;21.67;59.71;101328.09;5031286;28;20014;-75
2022/09/24 08:39:35;;;;;;;16.67;2.33;;;;;;;21.02;61.46;101324.97;5032009;28;20032;-76
2022/09/24 08:42:22;;;;;;;10.38;2.10;;;;;;;21.28;61.29;101325.53;5030745;28;20036;-75
2022/09/24 08:47:44;;;;;;;11.45;2.00;;;;;;;22.23;57.50;101325.34;5043630;28;20575;-75
2022/09/24 08:50:20;;;;;;;13.85;2.53;;;;;;;22.10;57.93;101345.53;5030888;28;20425;-76
2022/09/24 08:52:48;;;;;;;19.90;4.75;;;;;;;22.48;56.07;101335.63;5031980;28;20434;-76
2022/09/24 08:55:20;;;;;;;33.63;5.35;;;;;;;21.57;56.92;101347.25;5043325;28;20112;-76
2022/09/24 08:57:57;;;;;;;17.02;2.95;;;;;;;22.43;55.11;101336.81;5022456;28;20030;-75
2022/09/24 09:00:22;;;;;;;13.93;2.55;;;;;;;22.44;54.79;101339.38;5012005;28;20026;-76
2022/09/24 09:03:34;;;;;;;12.98;4.00;;;;;;;21.25;60.65;101346.94;5026499;28;20052;-76
2022/09/24 09:06:18;;;;;;;17.45;2.47;;;;;;;21.63;59.58;101342.50;5013502;28;20034;-75
2022/09/24 09:09:10;;;;;;;15.55;3.10;;;;;;;20.83;62.74;101339.09;5056616;28;20059;-75
2022/09/24 09:11:38;;;;;;;13.20;2.67;;;;;;;21.33;59.62;101344.78;5016735;28;20042;-75
2022/09/24 09:14:18;;;;;;;21.02;3.15;;;;;;;21.55;61.50;101343.81;5010248;28;20033;-75
2022/09/24 09:17:06;;;;;;;8.38;2.63;;;;;;;21.61;58.33;101346.16;5027563;28;20055;-75
2022/09/24 09:19:33;;;;;;;18.80;3.20;;;;;;;20.99;63.38;101346.34;5008335;28;20029;-75
2022/09/24 09:22:06;;;;;;;16.35;4.57;;;;;;;21.97;58.09;101351.47;5045991;28;20430;-75
2022/09/24 09:24:45;;;;;;;13.55;4.35;;;;;;;22.12;57.21;101355.19;5011225;28;20028;-76
2022/09/24 09:27:15;;;;;;;14.48;2.20;;;;;;;21.51;61.19;101359.88;5048284;28;20032;-75
2022/09/24 09:29:47;;;;;;;11.27;2.10;;;;;;;21.93;57.29;101360.56;5043466;28;20090;-76
2022/09/24 09:32:27;;;;;;;9.90;2.17;;;;;;;21.33;59.27;101358.94;5025072;28;20029;-76
2022/09/24 09:35:20;;;;;;;15.63;1.92;;;;;;;21.77;58.56;101360.44;5026658;28;20133;-76
2022/09/24 09:38:04;;;;;;;9.75;2.47;;;;;;;21.70;58.88;101369.66;5011156;28;20038;-75
2022/09/24 09:40:33;;;;;;;13.88;3.08;;;;;;;21.89;58.62;101366.13;5044158;28;20026;-76
2022/09/24 09:43:01;;;;;;;13.93;2.38;;;;;;;22.15;58.13;101364.81;5045838;28;20037;-76
2022/09/24 09:45:50;;;;;;;11.75;1.90;;;;;;;21.75;58.02;101370.31;5026012;28;20072;-75
2022/09/24 09:48:20;;;;;;;13.93;2.95;;;;;;;21.05;60.02;101371.78;5017033;28;20060;-76
2022/09/24 09:50:52;;;;;;;14.48;2.60;;;;;;;21.96;57.73;101371.03;5024845;28;20021;-76
2022/09/24 09:53:31;;;;;;;10.05;2.45;;;;;;;21.75;60.89;101372.97;5064283;28;20036;-76
2022/09/24 09:56:03;;;;;;;18.38;4.03;;;;;;;22.30;57.98;101369.34;5016731;28;20543;-76
2022/09/24 09:58:54;;;;;;;13.77;2.50;;;;;;;22.14;56.23;101377.25;5029667;28;20025;-77
2022/09/24 10:01:31;;;;;;;11.23;3.00;;;;;;;21.61;58.49;101375.41;5032464;28;20025;-76
2022/09/24 10:04:01;;;;;;;12.43;1.90;;;;;;;20.91;61.41;101385.69;5023311;28;20026;-75
2022/09/24 10:06:33;;;;;;;15.38;1.90;;;;;;;21.08;62.32;101380.47;5022511;28;20036;-75
2022/09/24 10:09:18;;;;;;;14.82;2.10;;;;;;;20.22;62.34;101381.53;5029104;28;20120;-75
2022/09/24 10:11:44;;;;;;;13.68;2.20;;;;;;;21.44;61.19;101371.72;5030282;28;20032;-76
2022/09/24 10:14:12;;;;;;;8.38;2.13;;;;;;;21.96;58.47;101375.50;5030397;28;20033;-76
2022/09/24 10:16:43;;;;;;;11.02;2.03;;;;;;;20.94;62.33;101385.56;5027970;28;20025;-75
2022/09/24 10:19:25;;;;;;;11.05;1.92;;;;;;;21.44;58.92;101386.81;5028652;28;20087;-76
2022/09/24 10:21:52;;;;;;;15.55;1.98;;;;;;;21.31;60.87;101383.88;5030382;28;20083;-76
2022/09/24 10:24:21;;;;;;;18.13;3.55;;;;;;;20.97;63.37;101377.47;5023573;28;20152;-77
2022/09/24 10:26:47;;;;;;;14.70;2.65;;;;;;;22.31;56.86;101383.50;5025310;28;20025;-76
2022/09/24 10:32:04;;;;;;;10.65;2.08;;;;;;;21.41;63.23;101393.16;5025055;28;20047;-77
2022/09/24 10:34:30;;;;;;;9.90;2.80;;;;;;;21.40;59.18;101387.91;5032830;28;20028;-76
2022/09/24 10:37:02;;;;;;;15.35;2.50;;;;;;;22.28;57.19;101391.66;5036884;28;20025;-76
2022/09/24 10:39:28;;;;;;;12.88;2.90;;;;;;;22.33;57.28;101392.31;5035348;28;20556;-76
2022/09/24 10:41:56;;;;;;;15.73;2.47;;;;;;;23.80;52.12;101396.03;5033624;28;20147;-76
2022/09/24 10:44:23;;;;;;;9.82;2.60;;;;;;;21.60;57.09;101395.00;5033102;28;20056;-77
2022/09/24 10:47:10;;;;;;;11.52;2.05;;;;;;;20.99;61.08;101396.84;5033041;28;20357;-75
2022/09/24 10:50:06;;;;;;;9.40;2.50;;;;;;;21.94;59.21;101403.97;5020562;28;20026;-76
2022/09/24 10:52:55;;;;;;;9.48;2.50;;;;;;;22.11;56.82;101404.03;5014481;28;20038;-76
2022/09/24 10:55:53;;;;;;;13.15;3.47;;;;;;;22.60;53.55;101397.16;5013706;28;20116;-76
2022/09/24 10:58:37;;;;;;;12.07;2.47;;;;;;;21.90;57.06;101402.41;5016488;28;20029;-76
2022/09/24 11:01:11;;;;;;;10.18;2.25;;;;;;;22.86;54.13;101403.78;5039585;28;20030;-76
2022/09/24 11:03:52;;;;;;;13.20;1.95;;;;;;;21.93;56.17;101400.47;5048616;28;20030;-79
2022/09/24 11:06:33;;;;;;;14.40;3.10;;;;;;;21.29;58.95;101418.50;5021268;28;20389;-79
2022/09/24 11:09:19;;;;;;;9.90;1.90;;;;;;;21.19;58.38;101409.22;5039008;28;20033;-78
2022/09/24 11:11:50;;;;;;;15.00;2.10;;;;;;;21.01;59.88;101408.28;5050469;28;20022;-79
2022/09/24 11:14:37;;;;;;;11.55;2.72;;;;;;;20.05;63.97;101417.59;5042106;28;20033;-77
2022/09/24 11:17:11;;;;;;;12.30;2.13;;;;;;;21.52;58.31;101420.13;5024542;28;20028;-79
2022/09/24 11:19:55;;;;;;;10.20;2.10;;;;;;;21.66;57.52;101416.81;5031082;28;20037;-78
2022/09/24 11:22:48;;;;;;;10.38;1.60;;;;;;;22.69;54.49;101410.03;5042036;28;20049;-79
2022/09/24 11:25:46;;;;;;;;;;;;;;;21.64;56.57;101421.34;5064598;28;20028;-78
2022/09/24 11:29:05;;;;;;;10.80;2.13;;;;;;;22.94;52.58;101419.41;5040085;28;19958;-79
2022/09/24 11:32:08;;;;;;;13.75;3.38;;;;;;;21.93;54.34;101426.22;5006842;28;20048;-78
2022/09/24 11:34:45;;;;;;;;;;;;;;;22.85;54.10;101413.59;5063430;28;20045;-78
2022/09/24 11:37:28;;;;;;;9.98;1.50;;;;;;;22.00;54.42;101414.34;5060389;28;20336;-80
2022/09/24 11:40:02;;;;;;;7.95;1.90;;;;;;;22.27;56.25;101421.88;5023145;28;20397;-79
2022/09/24 11:42:55;;;;;;;11.93;1.80;;;;;;;22.82;53.90;101424.44;5027879;28;20489;-79